Weather observations for the past three days for
Nebraska City, Nebraska City Municipal Airport
Imperial (Metric)
Date Time (cdt) Wind (mph) Vis. (mi.) Weather Sky Cond. Temperature (ºF) Relative Humidity Wind Chill (°F) Heat Index (°F) Pressure Precipitation (in)
Air Dwpt 6 hour altimeter (in) sea level (mb) 1 hr 3 hr 6 hr
Max. Min.
04 18:35 N 20 G 30 10.00 Fair CLR 73.8 39.7 29% 29.63 0.0
04 18:15 N 20 G 25 10.00 Fair CLR 76.6 42.4 30% 77 29.61 0.0
04 17:55 N 16 G 23 10.00 Fair CLR 76.3 44.6 32% 78 29.6 0.0
04 17:35 N 14 G 24 10.00 Fair CLR 78.1 43.3 29% 78 29.59 0.0
04 17:15 N 15 10.00 Fair CLR 79.9 44.2 28% 79 29.58 0.0
04 16:55 N 15 G 21 10.00 Fair CLR 81 45 28% 80 29.57 0.0
04 16:35 N 15 G 21 10.00 Fair CLR 81.3 45.7 29% 80 29.58 0.0
04 16:15 N 14 G 23 10.00 Fair CLR 81.5 44.8 27% 80 29.57 0.0
04 15:55 N 12 G 17 10.00 Fair CLR 81.5 43.9 27% 80 29.57 0.0
04 15:35 NW 10 10.00 Partly Cloudy SCT110 81.3 42.1 25% 80 29.57 0.0
04 15:15 N 6 G 16 10.00 Fair CLR 82.4 42.6 25% 80 29.58 0.0
04 14:55 NW 16 G 22 10.00 Partly Cloudy SCT110 82.9 43 24% 81 29.58 0.0
04 14:35 N 13 G 17 10.00 Partly Cloudy SCT110 82.8 42.1 24% 81 29.58 0.0
04 14:15 NW 12 G 21 10.00 Fair CLR 82.4 42.3 24% 80 29.58 0.0
04 13:55 N 10 10.00 Fair CLR 81 40.6 24% 79 29.58 0.0
04 13:35 N 9 G 17 10.00 Fair CLR 81 41 24% 79 29.59 0.0
04 13:15 N 12 G 17 10.00 Fair CLR 81.3 38.8 22% 80 29.59 0.0
04 12:55 N 12 G 17 10.00 Fair CLR 80.8 40.6 80.8 50.7 24% 79 29.6 0.0
04 12:35 NW 9 10.00 Fair CLR 79.3 42.8 27% 79 29.6 0.0
04 12:15 NW 8 G 17 10.00 Fair CLR 78.8 45 30% 79 29.6 0.0
04 11:55 NW 13 10.00 Fair CLR 77.7 46.8 34% 78 29.6 0.0
04 11:35 NW 8 10.00 Fair CLR 76.3 47.8 37% 78 29.61 0.0
04 11:15 NW 9 10.00 Fair CLR 74.3 48 39% 29.61 0.0
04 10:55 NW 13 10.00 Fair CLR 72.7 48.7 43% 29.61 0.0
04 10:35 NW 8 10.00 Fair CLR 70.9 48.2 45% 29.61 0.0
04 10:15 NW 10 10.00 Fair CLR 68.9 48.2 48% 29.61 0.0
04 09:55 NW 9 10.00 Fair CLR 67.1 47.5 50% 29.61 0.0
04 09:35 NW 9 10.00 Fair CLR 66.2 47.5 51% 29.61 0.0
04 09:15 W 7 10.00 Fair CLR 65.1 47.5 53% 29.61 0.0
04 08:55 Calm 10.00 Fair CLR 62.6 46 55% 29.61 0.0
04 08:35 W 3 10.00 Fair CLR 61.7 45.3 55% 29.6 0.0
04 08:15 Calm 10.00 Fair CLR 60.3 45.5 58% 29.6 0.0
04 07:55 Calm 10.00 Fair CLR 59.2 46.4 63% 29.6 0.0
04 07:35 S 7 10.00 Fair CLR 55.2 45.1 69% 29.59 0.0
04 07:15 S 8 10.00 Fair CLR 52.5 43 70% 29.59 0.0
04 06:55 S 5 10.00 Fair CLR 51.3 41.4 61.5 51.3 69% 29.59 0.0
04 06:35 Calm 10.00 Fair CLR 54.3 40.5 60% 29.6 0.0
04 06:15 Calm 10.00 Fair CLR 53.2 40.5 62% 29.6 0.0
04 05:55 Calm 10.00 Fair CLR 52 40.6 65% 29.6 0.0
04 05:35 S 3 10.00 Fair CLR 53.8 40.5 61% 29.6 0.0
04 05:15 S 7 10.00 Fair CLR 52.7 41.2 65% 29.6 0.0
04 04:55 S 9 10.00 Fair CLR 52.9 41.9 66% 29.6 0.0
04 04:35 S 8 10.00 Fair CLR 52.7 41.5 66% 29.62 0.0
04 04:15 S 7 10.00 Fair CLR 53.6 41 63% 29.63 0.0
04 03:55 S 8 10.00 Fair CLR 52 41.4 67% 29.64 0.0
04 03:35 S 7 10.00 Fair CLR 54.9 41 60% 29.64 0.0
04 03:15 S 7 10.00 Fair CLR 54.9 41 60% 29.66 0.0
04 02:55 S 7 10.00 Fair CLR 54.9 41.4 61% 29.67 0.0
04 02:35 S 7 10.00 Partly Cloudy SCT120 55 41.9 61% 29.68 0.0
04 02:15 S 7 10.00 Fair CLR 56.3 41.5 58% 29.69 0.0
04 01:55 S 7 10.00 Fair CLR 58.6 40.5 51% 29.71 0.0
04 01:35 S 6 10.00 Fair CLR 59.2 40.3 50% 29.72 0.0
04 01:15 S 8 10.00 Fair CLR 55.4 42.6 62% 29.73 0.0
04 00:55 SE 5 10.00 Fair CLR 61 39.7 72.9 59.9 46% 29.72 0.0
04 00:35 SE 6 10.00 Fair CLR 60.8 39.9 46% 29.73 0.0
04 00:15 SE 3 10.00 Fair CLR 63 39 41% 29.73 0.0
03 23:55 S 7 10.00 Fair CLR 63 40.1 43% 29.74 0.0
03 23:35 S 3 10.00 Fair CLR 61 40.6 47% 29.75 0.0
03 23:15 S 5 10.00 Fair CLR 60.8 39.6 46% 29.76 0.0
03 22:55 SE 5 10.00 Fair CLR 61.5 40.6 46% 29.76 0.0
03 22:35 S 5 10.00 Fair CLR 63.1 39.7 42% 29.77 0.0
03 22:15 E 3 10.00 Fair CLR 63.7 38.8 40% 29.77 0.0
03 21:55 Calm 10.00 Fair CLR 63.5 41 44% 29.78 0.0
03 21:35 Calm 10.00 Fair CLR 64.4 39.4 40% 29.78 0.0
03 21:15 NE 3 10.00 Fair CLR 64 40.1 42% 29.78 0.0
03 20:55 E 5 10.00 Fair CLR 65.3 39.9 40% 29.78 0.0
03 20:35 Calm 10.00 Fair CLR 65.5 41 41% 29.78 0.0
03 20:15 NE 3 10.00 Fair CLR 66.7 41.5 40% 29.78 0.0
03 19:55 NE 3 10.00 Fair CLR 68.7 40.8 36% 29.79 0.0
03 19:35 NE 3 10.00 Fair CLR 70.9 40.5 33% 29.79 0.0
03 19:15 Calm 10.00 Fair CLR 72.7 41.7 33% 29.79 0.0
03 18:55 Calm 10.00 Fair CLR 72.1 40.8 74.8 71.6 32% 29.8 0.0
03 18:35 Calm 10.00 Fair CLR 72.5 39 30% 29.8 0.0
03 18:15 N 6 10.00 Fair CLR 73 39.9 30% 29.81 0.0
03 17:35 N 3 10.00 Fair CLR 73.9 40.8 30% 29.81 0.0
03 17:15 Calm 10.00 Fair CLR 74.5 38.7 27% 29.81 0.0
03 16:55 E 3 10.00 Fair CLR 73.6 39.9 30% 29.82 0.0
03 16:35 NW 7 10.00 Fair CLR 74.7 42.1 31% 29.82 0.0
03 16:15 NW 7 10.00 Fair CLR 73.9 41 31% 29.83 0.0
03 15:55 N 8 10.00 Fair CLR 73.8 41.2 31% 29.84 0.0
03 15:35 NE 6 10.00 Fair CLR 73.4 41.2 31% 29.84 0.0
03 15:15 NE 8 10.00 Fair CLR 72.9 38.8 29% 29.85 0.0
03 14:55 N 12 10.00 Fair CLR 73.4 39.7 30% 29.86 0.0
03 14:35 N 12 G 18 10.00 Fair CLR 73.2 40.5 31% 29.86 0.0
03 14:15 N 10 G 17 10.00 Fair CLR 72 39.4 31% 29.86 0.0
03 13:55 N 12 G 17 10.00 Fair CLR 72 39.6 31% 29.86 0.0
03 13:35 N 13 10.00 Fair CLR 73 42.6 34% 29.86 0.0
03 13:15 N 8 10.00 Fair CLR 72.7 42.3 34% 29.87 0.0
03 12:55 N 10 10.00 Fair CLR 71.1 42.8 71.2 54.1 36% 29.88 0.0
03 12:35 N 10 10.00 Fair CLR 71.1 41.9 35% 29.89 0.0
03 12:15 NW 8 10.00 Fair CLR 70.5 43.9 38% 29.89 0.0
03 11:55 N 9 10.00 Fair CLR 70 41.7 36% 29.89 0.0
03 11:35 NW 12 10.00 Fair CLR 70.2 43.5 38% 29.89 0.0
03 11:15 W 12 10.00 Fair CLR 68.7 44.1 41% 29.9 0.0
03 10:55 NW 10 G 16 10.00 Fair CLR 67.5 43.7 42% 29.9 0.0
03 10:35 NW 14 10.00 Fair CLR 66 42.1 42% 29.89 0.0
03 10:15 NW 12 G 17 10.00 Fair CLR 65.3 42.8 44% 29.89 0.0
03 09:55 W 13 10.00 Fair CLR 63.7 43.5 48% 29.89 0.0
03 09:35 W 16 10.00 Fair CLR 62.1 42.3 48% 29.88 0.0
03 09:15 W 18 10.00 Fair CLR 60.3 41.2 50% 29.88 0.0
03 08:55 W 16 G 23 10.00 Fair CLR 59.2 41.7 53% 29.88 0.0
03 08:35 W 16 G 23 10.00 Fair CLR 57.7 40.8 53% 29.88 0.0
03 08:15 W 14 10.00 Fair CLR 56.7 40.3 54% 29.89 0.0
03 07:55 W 15 G 24 10.00 Fair CLR 55.6 39.9 56% 29.89 0.0
03 07:35 SW 22 G 25 10.00 Fair and Breezy CLR 54.7 39.2 56% 29.88 0.0
03 07:15 W 20 G 25 10.00 Fair CLR 55 39.2 55% 29.87 0.0
03 06:55 W 20 G 26 10.00 Fair CLR 54.5 37.9 54.7 51.1 54% 29.87 0.0
03 06:35 W 21 10.00 Partly Cloudy and Breezy SCT120 54.5 37.4 53% 29.87 0.0
03 06:15 SW 18 10.00 Partly Cloudy SCT120 54.5 36.5 51% 29.84 0.0
03 05:55 SW 18 G 25 10.00 Fair CLR 54 35.2 49% 29.85 0.0
03 05:35 SW 22 10.00 Fair and Breezy CLR 54 34.7 48% 29.85 0.0
03 05:15 SW 18 G 25 10.00 Fair CLR 53.6 34.2 48% 29.86 0.0
03 04:55 SW 16 10.00 Fair CLR 52.9 34.2 49% 29.87 0.0
03 04:35 SW 18 G 24 10.00 Fair CLR 53.4 34.2 48% 29.87 0.0
03 04:15 SW 16 G 22 10.00 Fair CLR 52.7 34.3 50% 29.88 0.0
03 03:55 SW 15 10.00 Fair CLR 52.2 34.3 51% 29.89 0.0
03 03:35 SW 15 10.00 Fair CLR 51.8 34.5 52% 29.89 0.0
03 03:15 SW 14 10.00 Fair CLR 52.3 34.7 51% 29.89 0.0
03 02:55 SW 14 10.00 Fair CLR 52.7 34.3 50% 29.89 0.0
03 02:35 SW 16 10.00 Fair CLR 52.7 34.2 49% 29.9 0.0
03 02:15 SW 14 10.00 Fair CLR 52.2 34.5 51% 29.9 0.0
03 01:55 SW 15 10.00 Fair CLR 52.7 34.5 50% 29.91 0.0
03 01:35 SW 13 10.00 Fair CLR 51.4 34.7 53% 29.92 0.0
03 01:15 SW 12 10.00 Fair CLR 51.3 34.7 53% 29.93 0.0
03 00:55 SW 12 10.00 Fair CLR 52 34.5 65.3 51.3 52% 29.93 0.0
03 00:35 SW 13 G 17 10.00 Fair CLR 52.5 34.5 51% 29.94 0.0
03 00:15 SW 13 10.00 Fair CLR 52.2 34.3 51% 29.94 0.0
02 23:55 SW 10 10.00 Fair CLR 51.3 34.3 53% 29.95 0.0
02 23:35 SW 10 10.00 Fair CLR 51.6 34.5 52% 29.95 0.0
02 23:15 S 10 10.00 Fair CLR 52.7 34.3 50% 29.96 0.0
02 22:55 S 12 10.00 Fair CLR 53.2 34.2 49% 29.96 0.0
02 22:35 S 10 10.00 Fair CLR 52.3 34.5 51% 29.98 0.0
02 22:15 S 10 10.00 Fair CLR 52.3 34.7 51% 29.99 0.0
02 21:55 S 9 10.00 Fair CLR 52.3 34.3 51% 29.99 0.0
02 21:35 S 9 10.00 Fair CLR 52.7 34.3 50% 30 0.0
02 21:15 S 8 10.00 Fair CLR 53.2 34.3 49% 30 0.0
02 20:55 S 6 10.00 Fair CLR 55.4 33.6 44% 30 0.0
02 20:35 S 8 10.00 Fair CLR 56.3 34 43% 30 0.0
02 20:15 S 6 10.00 Fair CLR 58.3 34.3 41% 29.99 0.0
02 19:55 SW 6 10.00 Fair CLR 61.2 33.3 35% 30 0.0
02 19:35 SW 6 10.00 Fair CLR 63.1 32 31% 30 0.0
02 19:15 SW 7 10.00 Fair CLR 64.2 32.9 31% 30.01 0.0
02 18:55 SW 6 10.00 Fair CLR 65.1 30.6 65.8 59.4 27% 30.01 0.0
02 18:35 SW 9 10.00 Fair CLR 65.3 31.5 28% 30.02 0.0
02 18:15 W 8 10.00 Fair CLR 65.7 30.2 27% 30.03 0.0
02 17:55 W 6 10.00 Fair CLR 65.5 30.7 27% 30.04 0.0
02 17:35 W 6 10.00 Fair CLR 65.7 32.4 29% 30.04 0.0
02 17:15 W 9 G 17 10.00 Fair CLR 65.5 32.4 29% 30.05 0.0
02 16:55 W 6 G 18 10.00 Fair CLR 65.1 31.5 28% 30.05 0.0
02 16:35 SW 9 10.00 Fair CLR 64.6 32.7 30% 30.06 0.0
02 16:15 Calm 10.00 Fair CLR 63.7 32 31% 30.07 0.0
02 15:55 Calm 10.00 Fair CLR 63.5 31.8 31% 30.08 0.0
02 15:35 Calm 10.00 Fair CLR 63 31.6 31% 30.09 0.0
02 15:15 Calm 10.00 Fair CLR 63 33.1 33% 30.1 0.0
02 14:35 NW 5 10.00 Fair CLR 62.4 32.7 33% 30.12 0.0
02 14:15 N 3 10.00 Fair CLR 61.2 32.2 34% 30.12 0.0
02 13:55 W 6 10.00 Fair CLR 61.5 32.9 34% 30.13 0.0
02 13:35 N 8 10.00 Fair CLR 60.3 30.9 33% 30.14 0.0
02 13:15 NW 8 10.00 Fair CLR 60.4 30 32% 30.14 0.0
02 12:55 W 8 10.00 Fair CLR 59.4 29.3 59.9 35.4 32% 30.15 0.0
02 12:35 N 5 10.00 Fair CLR 59 28.6 31% 30.16 0.0
02 12:15 NW 3 10.00 Fair CLR 58.5 29.3 33% 30.16 0.0
02 11:55 NW 15 G 20 10.00 Fair CLR 57.6 29.3 34% 30.17 0.0
02 11:35 W 9 G 17 10.00 Fair CLR 57.2 30.6 36% 30.17 0.0
02 11:15 NW 8 10.00 Fair CLR 55.9 29.8 37% 30.18 0.0
02 10:55 NW 8 10.00 Fair CLR 55.8 31.3 39% 30.18 0.0
02 10:35 W 5 10.00 Fair CLR 54.7 30.6 40% 30.19 0.0
02 10:15 W 9 10.00 Fair CLR 54.1 32.2 43% 30.19 0.0
02 09:55 W 8 10.00 Fair CLR 53.4 30.6 42% 30.19 0.0
02 09:35 W 7 10.00 Fair CLR 51.8 29.5 42% 30.19 0.0
02 09:15 W 6 10.00 Fair CLR 51.1 30.6 45% 30.19 0.0
02 08:55 NW 5 10.00 Fair CLR 49.3 30.6 49% 48 30.19 0.0
02 08:35 NW 3 10.00 Fair CLR 47.5 32.7 57% 30.19 0.0
02 08:15 NW 5 10.00 Fair CLR 45 32.5 62% 43 30.18 0.0
02 07:55 NW 6 10.00 Fair CLR 41.9 32.2 69% 39 30.19 0.0
02 07:35 NW 5 10.00 Fair CLR 40.1 31.1 70% 37 30.18 0.0
02 07:15 NW 7 10.00 Fair CLR 36.9 29.3 74% 32 30.18 0.0
02 06:55 NW 7 10.00 Fair CLR 35.2 28.6 43.7 34.9 77% 30 30.17 0.0
02 06:35 NW 7 10.00 Fair CLR 35.8 27.9 73% 31 30.17 0.0
02 06:15 NW 6 10.00 Fair CLR 36.5 27.5 70% 32 30.17 0.0
02 05:55 NW 7 10.00 Fair CLR 36.5 27.3 69% 32 30.16 0.0
02 05:35 NW 6 10.00 Fair CLR 37.8 27.3 66% 34 30.16 0.0
02 05:15 NW 6 10.00 Fair CLR 38.3 26.6 63% 34 30.16 0.0
02 04:55 NW 6 10.00 Fair CLR 38.8 26.6 62% 35 30.16 0.0
02 04:35 NW 6 10.00 Fair CLR 39.7 26.4 59% 36 30.15 0.0
02 04:15 NW 6 10.00 Fair CLR 40.1 26.4 58% 37 30.15 0.0
02 03:55 N 5 10.00 Fair CLR 40.3 26.4 58% 38 30.15 0.0
02 03:35 N 5 10.00 Fair CLR 41.4 26.2 55% 39 30.14 0.0
02 03:15 N 6 10.00 Fair CLR 41.4 26.4 55% 38 30.14 0.0
02 02:55 N 5 10.00 Fair CLR 42.6 25.5 51% 40 30.15 0.0
02 02:35 N 5 10.00 Fair CLR 42.8 25.7 51% 41 30.15 0.0
02 02:15 N 5 10.00 Fair CLR 43.7 25.5 49% 42 30.15 0.0
02 01:55 N 5 10.00 Fair CLR 42.8 26.4 52% 41 30.16 0.0
02 01:35 N 5 10.00 Fair CLR 42.6 26.6 53% 40 30.15 0.0
02 01:15 N 5 10.00 Fair CLR 43.2 26.4 52% 41 30.15 0.0
02 00:55 N 5 10.00 Fair CLR 43.5 26.8 56.1 42.8 52% 41 30.15 0.0
02 00:35 N 6 10.00 Fair CLR 43.5 27 52% 41 30.15 0.0
02 00:15 N 5 10.00 Fair CLR 44.2 26.6 50% 42 30.14 0.0
01 23:55 N 5 10.00 Fair CLR 44.4 27.5 52% 42 30.14 0.0
01 23:35 N 5 10.00 Fair CLR 44.8 27.3 50% 43 30.14 0.0
01 23:15 N 5 10.00 Fair CLR 45.1 27.5 50% 43 30.14 0.0
01 22:55 N 5 10.00 Fair CLR 45.5 27.3 49% 44 30.14 0.0
01 22:35 N 5 10.00 Fair CLR 45.9 27.3 48% 44 30.14 0.0
01 22:15 N 6 10.00 Fair CLR 45.9 27.5 49% 43 30.13 0.0
01 21:55 N 6 10.00 Fair CLR 45.7 28 50% 43 30.13 0.0
01 21:35 N 7 10.00 Fair CLR 46 28 50% 43 30.12 0.0
01 21:15 N 7 10.00 Fair CLR 47.3 27.9 47% 44 30.11 0.0
01 20:35 N 8 10.00 Fair CLR 50 27.1 41% 47 30.09 0.0
01 20:15 N 8 10.00 Fair CLR 51.6 26.6 38% 30.08 0.0
01 19:55 N 12 G 18 10.00 Fair CLR 53.1 26.2 35% 30.08 0.0
01 19:35 N 13 10.00 Fair CLR 54.3 26.6 34% 30.08 0.0
01 19:15 N 14 10.00 Fair CLR 55.2 25.5 32% 30.07 0.0
01 18:55 N 13 G 21 10.00 Fair CLR 56.3 26.1 60.6 56.3 31% 30.07 0.0
Date Time (cdt) Wind (mph) Vis. (mi.) Weather Sky Cond. Air Dwpt Max. Min. Relative Humidity Wind Chill (°F) Heat Index (°F) altimeter (in) sea level (mb) 1 hr 3 hr 6 hr
6 hour
Temperature (ºF) Pressure Precipitation (in)